sensor_id;sensor_type;location;lat;lon;timestamp;temperature;humidity
64654;DHT22;51065;48.884;12.598;2022-12-18T00:01:05;-3.50;99.90
64654;DHT22;51065;48.884;12.598;2022-12-18T00:03:35;-3.60;99.90
64654;DHT22;51065;48.884;12.598;2022-12-18T00:06:01;-3.60;99.90
64654;DHT22;51065;48.884;12.598;2022-12-18T00:08:27;-3.60;99.90
64654;DHT22;51065;48.884;12.598;2022-12-18T00:10:52;-3.60;99.90
64654;DHT22;51065;48.884;12.598;2022-12-18T00:13:20;-3.60;99.90
64654;DHT22;51065;48.884;12.598;2022-12-18T00:15:46;-3.50;99.90
64654;DHT22;51065;48.884;12.598;2022-12-18T00:18:11;-3.50;99.90
64654;DHT22;51065;48.884;12.598;2022-12-18T00:20:38;-3.50;99.90
64654;DHT22;51065;48.884;12.598;2022-12-18T00:23:05;-3.50;99.90
64654;DHT22;51065;48.884;12.598;2022-12-18T00:25:33;-3.50;99.90
64654;DHT22;51065;48.884;12.598;2022-12-18T00:27:59;-3.50;99.90
64654;DHT22;51065;48.884;12.598;2022-12-18T00:30:25;-3.50;99.90
64654;DHT22;51065;48.884;12.598;2022-12-18T00:32:50;-3.50;99.90
64654;DHT22;51065;48.884;12.598;2022-12-18T00:35:16;-3.50;99.90
64654;DHT22;51065;48.884;12.598;2022-12-18T00:37:42;-3.60;99.90
64654;DHT22;51065;48.884;12.598;2022-12-18T00:40:08;-3.60;99.90
64654;DHT22;51065;48.884;12.598;2022-12-18T00:42:37;-3.50;99.90
64654;DHT22;51065;48.884;12.598;2022-12-18T00:45:24;-3.60;99.90
64654;DHT22;51065;48.884;12.598;2022-12-18T00:47:50;-3.60;99.90
64654;DHT22;51065;48.884;12.598;2022-12-18T00:50:16;-3.60;99.90
64654;DHT22;51065;48.884;12.598;2022-12-18T00:52:42;-3.60;99.90
64654;DHT22;51065;48.884;12.598;2022-12-18T00:55:08;-3.60;99.90
64654;DHT22;51065;48.884;12.598;2022-12-18T00:57:34;-3.60;99.90
64654;DHT22;51065;48.884;12.598;2022-12-18T01:00:00;-3.60;99.90
64654;DHT22;51065;48.884;12.598;2022-12-18T01:02:25;-3.60;99.90
64654;DHT22;51065;48.884;12.598;2022-12-18T01:04:51;-3.60;99.90
64654;DHT22;51065;48.884;12.598;2022-12-18T01:07:17;-3.70;99.90
64654;DHT22;51065;48.884;12.598;2022-12-18T01:09:42;-3.70;99.90
64654;DHT22;51065;48.884;12.598;2022-12-18T01:12:08;-3.70;99.90
64654;DHT22;51065;48.884;12.598;2022-12-18T01:14:33;-3.60;99.90
64654;DHT22;51065;48.884;12.598;2022-12-18T01:16:59;-3.60;99.90
64654;DHT22;51065;48.884;12.598;2022-12-18T01:19:24;-3.60;99.90
64654;DHT22;51065;48.884;12.598;2022-12-18T01:21:50;-3.60;99.90
64654;DHT22;51065;48.884;12.598;2022-12-18T01:24:16;-3.70;99.90
64654;DHT22;51065;48.884;12.598;2022-12-18T01:26:41;-3.60;99.90
64654;DHT22;51065;48.884;12.598;2022-12-18T01:29:07;-3.60;99.90
64654;DHT22;51065;48.884;12.598;2022-12-18T01:31:33;-3.60;99.90
64654;DHT22;51065;48.884;12.598;2022-12-18T01:34:03;-3.70;99.90
64654;DHT22;51065;48.884;12.598;2022-12-18T01:36:35;-3.70;99.90
64654;DHT22;51065;48.884;12.598;2022-12-18T01:39:03;-3.70;99.90
64654;DHT22;51065;48.884;12.598;2022-12-18T01:41:30;-3.70;99.90
64654;DHT22;51065;48.884;12.598;2022-12-18T01:44:53;-3.70;99.90
64654;DHT22;51065;48.884;12.598;2022-12-18T01:49:53;-3.70;99.90
64654;DHT22;51065;48.884;12.598;2022-12-18T01:52:20;-3.70;99.90
64654;DHT22;51065;48.884;12.598;2022-12-18T01:54:48;-3.70;99.90
64654;DHT22;51065;48.884;12.598;2022-12-18T01:57:14;-3.70;99.90
64654;DHT22;51065;48.884;12.598;2022-12-18T01:59:42;-3.70;99.90
64654;DHT22;51065;48.884;12.598;2022-12-18T02:02:08;-3.80;99.90
64654;DHT22;51065;48.884;12.598;2022-12-18T02:04:34;-3.70;99.90
64654;DHT22;51065;48.884;12.598;2022-12-18T02:07:03;-3.70;99.90
64654;DHT22;51065;48.884;12.598;2022-12-18T02:09:35;-3.70;99.90
64654;DHT22;51065;48.884;12.598;2022-12-18T02:12:18;-3.70;99.90
64654;DHT22;51065;48.884;12.598;2022-12-18T02:14:55;-3.70;99.90
64654;DHT22;51065;48.884;12.598;2022-12-18T02:17:54;-3.70;99.90
64654;DHT22;51065;48.884;12.598;2022-12-18T02:20:47;-3.70;99.90
64654;DHT22;51065;48.884;12.598;2022-12-18T02:28:33;-3.70;99.90
64654;DHT22;51065;48.884;12.598;2022-12-18T02:31:02;-3.80;99.90
64654;DHT22;51065;48.884;12.598;2022-12-18T02:33:30;-3.80;99.90
64654;DHT22;51065;48.884;12.598;2022-12-18T02:35:57;-3.80;99.90
64654;DHT22;51065;48.884;12.598;2022-12-18T02:38:25;-3.80;99.90
64654;DHT22;51065;48.884;12.598;2022-12-18T02:40:52;-3.80;99.90
64654;DHT22;51065;48.884;12.598;2022-12-18T02:43:19;-3.80;99.90
64654;DHT22;51065;48.884;12.598;2022-12-18T02:45:50;-3.80;99.90
64654;DHT22;51065;48.884;12.598;2022-12-18T02:48:19;-3.80;99.90
64654;DHT22;51065;48.884;12.598;2022-12-18T03:01:21;-3.90;99.90
64654;DHT22;51065;48.884;12.598;2022-12-18T03:03:51;-3.90;99.90
64654;DHT22;51065;48.884;12.598;2022-12-18T03:06:43;-3.80;99.90
64654;DHT22;51065;48.884;12.598;2022-12-18T03:09:32;-3.90;99.90
64654;DHT22;51065;48.884;12.598;2022-12-18T03:12:27;-3.90;99.90
64654;DHT22;51065;48.884;12.598;2022-12-18T03:15:06;-3.90;99.90
64654;DHT22;51065;48.884;12.598;2022-12-18T03:17:34;-3.90;99.90
64654;DHT22;51065;48.884;12.598;2022-12-18T03:20:05;-4.00;99.90
64654;DHT22;51065;48.884;12.598;2022-12-18T03:22:34;-4.00;99.90
64654;DHT22;51065;48.884;12.598;2022-12-18T03:25:03;-4.00;99.90
64654;DHT22;51065;48.884;12.598;2022-12-18T03:27:30;-4.10;99.90
64654;DHT22;51065;48.884;12.598;2022-12-18T03:32:38;-4.10;99.90
64654;DHT22;51065;48.884;12.598;2022-12-18T03:35:07;-4.10;99.90
64654;DHT22;51065;48.884;12.598;2022-12-18T03:37:33;-4.20;99.90
64654;DHT22;51065;48.884;12.598;2022-12-18T03:39:59;-4.20;99.90
64654;DHT22;51065;48.884;12.598;2022-12-18T03:45:31;-4.30;99.90
64654;DHT22;51065;48.884;12.598;2022-12-18T03:51:26;-4.30;99.90
64654;DHT22;51065;48.884;12.598;2022-12-18T03:53:58;-4.30;99.90
64654;DHT22;51065;48.884;12.598;2022-12-18T03:56:28;-4.30;99.90
64654;DHT22;51065;48.884;12.598;2022-12-18T03:58:55;-4.40;99.90
64654;DHT22;51065;48.884;12.598;2022-12-18T04:01:28;-4.30;99.90
64654;DHT22;51065;48.884;12.598;2022-12-18T04:03:55;-4.40;99.90
64654;DHT22;51065;48.884;12.598;2022-12-18T04:06:22;-4.30;99.90
64654;DHT22;51065;48.884;12.598;2022-12-18T04:08:48;-4.40;99.90
64654;DHT22;51065;48.884;12.598;2022-12-18T04:11:15;-4.30;99.90
64654;DHT22;51065;48.884;12.598;2022-12-18T04:13:42;-4.40;99.90
64654;DHT22;51065;48.884;12.598;2022-12-18T04:16:08;-4.40;99.90
64654;DHT22;51065;48.884;12.598;2022-12-18T04:18:34;-4.40;99.90
64654;DHT22;51065;48.884;12.598;2022-12-18T04:21:00;-4.40;99.90
64654;DHT22;51065;48.884;12.598;2022-12-18T04:23:26;-4.40;99.90
64654;DHT22;51065;48.884;12.598;2022-12-18T04:25:52;-4.40;99.90
64654;DHT22;51065;48.884;12.598;2022-12-18T04:28:17;-4.40;99.90
64654;DHT22;51065;48.884;12.598;2022-12-18T04:30:43;-4.40;99.90
64654;DHT22;51065;48.884;12.598;2022-12-18T04:33:12;-4.50;99.90
64654;DHT22;51065;48.884;12.598;2022-12-18T04:35:41;-4.50;99.90
64654;DHT22;51065;48.884;12.598;2022-12-18T04:38:07;-4.50;99.90
64654;DHT22;51065;48.884;12.598;2022-12-18T04:40:34;-4.50;99.90
64654;DHT22;51065;48.884;12.598;2022-12-18T04:42:59;-4.50;99.90
64654;DHT22;51065;48.884;12.598;2022-12-18T04:45:25;-4.50;99.90
64654;DHT22;51065;48.884;12.598;2022-12-18T04:47:50;-4.50;99.90
64654;DHT22;51065;48.884;12.598;2022-12-18T04:50:16;-4.50;99.90
64654;DHT22;51065;48.884;12.598;2022-12-18T04:52:41;-4.50;99.90
64654;DHT22;51065;48.884;12.598;2022-12-18T04:55:07;-4.60;99.90
64654;DHT22;51065;48.884;12.598;2022-12-18T04:57:33;-4.50;99.90
64654;DHT22;51065;48.884;12.598;2022-12-18T04:59:58;-4.60;99.90
64654;DHT22;51065;48.884;12.598;2022-12-18T05:02:24;-4.50;99.90
64654;DHT22;51065;48.884;12.598;2022-12-18T05:04:49;-4.60;99.90
64654;DHT22;51065;48.884;12.598;2022-12-18T05:07:15;-4.50;99.90
64654;DHT22;51065;48.884;12.598;2022-12-18T05:09:41;-4.50;99.90
64654;DHT22;51065;48.884;12.598;2022-12-18T05:12:06;-4.60;99.90
64654;DHT22;51065;48.884;12.598;2022-12-18T05:14:32;-4.60;99.90
64654;DHT22;51065;48.884;12.598;2022-12-18T05:16:57;-4.60;99.90
64654;DHT22;51065;48.884;12.598;2022-12-18T05:19:23;-4.60;99.90
64654;DHT22;51065;48.884;12.598;2022-12-18T05:21:48;-4.60;99.90
64654;DHT22;51065;48.884;12.598;2022-12-18T05:24:14;-4.60;99.90
64654;DHT22;51065;48.884;12.598;2022-12-18T05:26:40;-4.60;99.90
64654;DHT22;51065;48.884;12.598;2022-12-18T05:29:05;-4.60;99.90
64654;DHT22;51065;48.884;12.598;2022-12-18T05:31:31;-4.60;99.90
64654;DHT22;51065;48.884;12.598;2022-12-18T05:33:57;-4.60;99.90
64654;DHT22;51065;48.884;12.598;2022-12-18T05:36:23;-4.50;99.90
64654;DHT22;51065;48.884;12.598;2022-12-18T05:38:48;-4.60;99.90
64654;DHT22;51065;48.884;12.598;2022-12-18T05:41:14;-4.50;99.90
64654;DHT22;51065;48.884;12.598;2022-12-18T05:43:40;-4.50;99.90
64654;DHT22;51065;48.884;12.598;2022-12-18T05:46:08;-4.50;99.90
64654;DHT22;51065;48.884;12.598;2022-12-18T05:48:34;-4.50;99.90
64654;DHT22;51065;48.884;12.598;2022-12-18T05:51:07;-4.60;99.90
64654;DHT22;51065;48.884;12.598;2022-12-18T05:53:34;-4.50;99.90
64654;DHT22;51065;48.884;12.598;2022-12-18T05:56:02;-4.60;99.90
64654;DHT22;51065;48.884;12.598;2022-12-18T05:58:28;-4.60;99.90
64654;DHT22;51065;48.884;12.598;2022-12-18T06:00:54;-4.60;99.90
64654;DHT22;51065;48.884;12.598;2022-12-18T06:03:19;-4.60;99.90
64654;DHT22;51065;48.884;12.598;2022-12-18T06:05:45;-4.50;99.90
64654;DHT22;51065;48.884;12.598;2022-12-18T06:08:12;-4.60;99.90
64654;DHT22;51065;48.884;12.598;2022-12-18T06:10:38;-4.60;99.90
64654;DHT22;51065;48.884;12.598;2022-12-18T06:13:04;-4.60;99.90
64654;DHT22;51065;48.884;12.598;2022-12-18T06:15:30;-4.60;99.90
64654;DHT22;51065;48.884;12.598;2022-12-18T06:17:55;-4.60;99.90
64654;DHT22;51065;48.884;12.598;2022-12-18T06:20:21;-4.50;99.90
64654;DHT22;51065;48.884;12.598;2022-12-18T06:22:47;-4.50;99.90
64654;DHT22;51065;48.884;12.598;2022-12-18T06:25:12;-4.50;99.90
64654;DHT22;51065;48.884;12.598;2022-12-18T06:27:38;-4.50;99.90
64654;DHT22;51065;48.884;12.598;2022-12-18T06:30:05;-4.50;99.90
64654;DHT22;51065;48.884;12.598;2022-12-18T06:32:31;-4.50;99.90
64654;DHT22;51065;48.884;12.598;2022-12-18T06:34:56;-4.50;99.90
64654;DHT22;51065;48.884;12.598;2022-12-18T06:37:22;-4.50;99.90
64654;DHT22;51065;48.884;12.598;2022-12-18T06:39:52;-4.50;99.90
64654;DHT22;51065;48.884;12.598;2022-12-18T06:42:17;-4.50;99.90
64654;DHT22;51065;48.884;12.598;2022-12-18T06:44:43;-4.50;99.90
64654;DHT22;51065;48.884;12.598;2022-12-18T06:47:09;-4.50;99.90
64654;DHT22;51065;48.884;12.598;2022-12-18T06:49:34;-4.50;99.90
64654;DHT22;51065;48.884;12.598;2022-12-18T06:52:00;-4.50;99.90
64654;DHT22;51065;48.884;12.598;2022-12-18T06:54:25;-4.50;99.90
64654;DHT22;51065;48.884;12.598;2022-12-18T06:56:51;-4.50;99.90
64654;DHT22;51065;48.884;12.598;2022-12-18T06:59:16;-4.60;99.90
64654;DHT22;51065;48.884;12.598;2022-12-18T07:01:42;-4.60;99.90
64654;DHT22;51065;48.884;12.598;2022-12-18T07:04:07;-4.50;99.90
64654;DHT22;51065;48.884;12.598;2022-12-18T07:06:33;-4.50;99.90
64654;DHT22;51065;48.884;12.598;2022-12-18T07:08:59;-4.60;99.90
64654;DHT22;51065;48.884;12.598;2022-12-18T07:11:24;-4.60;99.90
64654;DHT22;51065;48.884;12.598;2022-12-18T07:13:50;-4.60;99.90
64654;DHT22;51065;48.884;12.598;2022-12-18T07:16:17;-4.60;99.90
64654;DHT22;51065;48.884;12.598;2022-12-18T07:18:43;-4.60;99.90
64654;DHT22;51065;48.884;12.598;2022-12-18T07:21:12;-4.60;99.90
64654;DHT22;51065;48.884;12.598;2022-12-18T07:23:38;-4.60;99.90
64654;DHT22;51065;48.884;12.598;2022-12-18T07:26:05;-4.60;99.90
64654;DHT22;51065;48.884;12.598;2022-12-18T07:28:32;-4.60;99.90
64654;DHT22;51065;48.884;12.598;2022-12-18T07:31:01;-4.50;99.90
64654;DHT22;51065;48.884;12.598;2022-12-18T07:33:27;-4.50;99.90
64654;DHT22;51065;48.884;12.598;2022-12-18T07:35:53;-4.50;99.90
64654;DHT22;51065;48.884;12.598;2022-12-18T07:38:18;-4.60;99.90
64654;DHT22;51065;48.884;12.598;2022-12-18T07:40:44;-4.50;99.90
64654;DHT22;51065;48.884;12.598;2022-12-18T07:43:09;-4.40;99.90
64654;DHT22;51065;48.884;12.598;2022-12-18T07:45:35;-4.50;99.90
64654;DHT22;51065;48.884;12.598;2022-12-18T07:48:01;-4.40;99.90
64654;DHT22;51065;48.884;12.598;2022-12-18T07:50:26;-4.50;99.90
64654;DHT22;51065;48.884;12.598;2022-12-18T07:52:52;-4.50;99.90
64654;DHT22;51065;48.884;12.598;2022-12-18T07:55:17;-4.50;99.90
64654;DHT22;51065;48.884;12.598;2022-12-18T07:57:43;-4.50;99.90
64654;DHT22;51065;48.884;12.598;2022-12-18T08:00:09;-4.50;99.90
64654;DHT22;51065;48.884;12.598;2022-12-18T08:02:34;-4.50;99.90
64654;DHT22;51065;48.884;12.598;2022-12-18T08:05:00;-4.50;99.90
64654;DHT22;51065;48.884;12.598;2022-12-18T08:07:26;-4.50;99.90
64654;DHT22;51065;48.884;12.598;2022-12-18T08:09:51;-4.50;99.90
64654;DHT22;51065;48.884;12.598;2022-12-18T08:12:17;-4.50;99.90
64654;DHT22;51065;48.884;12.598;2022-12-18T08:14:42;-4.50;99.90
64654;DHT22;51065;48.884;12.598;2022-12-18T08:17:08;-4.50;99.90
64654;DHT22;51065;48.884;12.598;2022-12-18T08:19:33;-4.40;99.90
64654;DHT22;51065;48.884;12.598;2022-12-18T08:21:59;-4.40;99.90
64654;DHT22;51065;48.884;12.598;2022-12-18T08:24:25;-4.50;99.90
64654;DHT22;51065;48.884;12.598;2022-12-18T08:26:50;-4.40;99.90
64654;DHT22;51065;48.884;12.598;2022-12-18T08:29:16;-4.40;99.90
64654;DHT22;51065;48.884;12.598;2022-12-18T08:31:42;-4.40;99.90
64654;DHT22;51065;48.884;12.598;2022-12-18T08:34:08;-4.30;99.90
64654;DHT22;51065;48.884;12.598;2022-12-18T08:36:34;-4.30;99.90
64654;DHT22;51065;48.884;12.598;2022-12-18T08:39:00;-4.30;99.90
64654;DHT22;51065;48.884;12.598;2022-12-18T08:41:26;-4.30;99.90
64654;DHT22;51065;48.884;12.598;2022-12-18T08:43:52;-4.30;99.90
64654;DHT22;51065;48.884;12.598;2022-12-18T08:46:41;-4.10;99.90
64654;DHT22;51065;48.884;12.598;2022-12-18T08:49:07;-4.00;99.90
64654;DHT22;51065;48.884;12.598;2022-12-18T08:51:33;-3.90;99.90
64654;DHT22;51065;48.884;12.598;2022-12-18T08:53:59;-3.90;99.90
64654;DHT22;51065;48.884;12.598;2022-12-18T08:56:25;-3.90;99.90
64654;DHT22;51065;48.884;12.598;2022-12-18T08:58:52;-3.90;99.90
64654;DHT22;51065;48.884;12.598;2022-12-18T09:01:18;-4.00;99.90
64654;DHT22;51065;48.884;12.598;2022-12-18T09:03:47;-4.00;99.90
64654;DHT22;51065;48.884;12.598;2022-12-18T09:06:14;-3.90;99.90
64654;DHT22;51065;48.884;12.598;2022-12-18T09:08:41;-3.90;99.90
64654;DHT22;51065;48.884;12.598;2022-12-18T09:11:25;-3.70;99.90
64654;DHT22;51065;48.884;12.598;2022-12-18T09:13:51;-3.70;99.90
64654;DHT22;51065;48.884;12.598;2022-12-18T09:16:17;-3.60;99.90
64654;DHT22;51065;48.884;12.598;2022-12-18T09:18:43;-3.40;99.90
64654;DHT22;51065;48.884;12.598;2022-12-18T09:21:14;-3.40;99.90
64654;DHT22;51065;48.884;12.598;2022-12-18T09:23:40;-3.50;99.90
64654;DHT22;51065;48.884;12.598;2022-12-18T09:26:06;-3.50;99.90
64654;DHT22;51065;48.884;12.598;2022-12-18T09:28:32;-3.40;99.90
64654;DHT22;51065;48.884;12.598;2022-12-18T09:30:58;-3.50;99.90
64654;DHT22;51065;48.884;12.598;2022-12-18T09:33:24;-3.60;99.90
64654;DHT22;51065;48.884;12.598;2022-12-18T09:35:49;-3.70;99.90
64654;DHT22;51065;48.884;12.598;2022-12-18T09:38:17;-3.80;99.90
64654;DHT22;51065;48.884;12.598;2022-12-18T09:40:47;-3.80;99.90
64654;DHT22;51065;48.884;12.598;2022-12-18T09:43:19;-3.80;99.90
64654;DHT22;51065;48.884;12.598;2022-12-18T09:45:49;-3.70;99.90
64654;DHT22;51065;48.884;12.598;2022-12-18T09:48:25;-3.70;99.90
64654;DHT22;51065;48.884;12.598;2022-12-18T09:50:54;-3.70;99.90
64654;DHT22;51065;48.884;12.598;2022-12-18T09:53:26;-3.80;99.90
64654;DHT22;51065;48.884;12.598;2022-12-18T09:55:54;-3.80;99.90
64654;DHT22;51065;48.884;12.598;2022-12-18T09:58:57;-3.90;99.90
64654;DHT22;51065;48.884;12.598;2022-12-18T10:01:24;-3.80;99.90
64654;DHT22;51065;48.884;12.598;2022-12-18T10:03:50;-3.80;99.90
64654;DHT22;51065;48.884;12.598;2022-12-18T10:06:27;-3.80;99.90
64654;DHT22;51065;48.884;12.598;2022-12-18T10:14:41;-3.40;99.90
64654;DHT22;51065;48.884;12.598;2022-12-18T10:17:24;-3.30;99.90
64654;DHT22;51065;48.884;12.598;2022-12-18T10:19:56;-3.10;99.90
64654;DHT22;51065;48.884;12.598;2022-12-18T10:25:42;-3.00;99.90
64654;DHT22;51065;48.884;12.598;2022-12-18T10:27:48;-2.80;99.90
64654;DHT22;51065;48.884;12.598;2022-12-18T10:30:19;-2.80;99.90
64654;DHT22;51065;48.884;12.598;2022-12-18T10:32:45;-2.80;99.90
64654;DHT22;51065;48.884;12.598;2022-12-18T10:35:23;-2.70;99.90
64654;DHT22;51065;48.884;12.598;2022-12-18T10:43:29;-2.70;99.90
64654;DHT22;51065;48.884;12.598;2022-12-18T10:46:07;-2.60;99.90
64654;DHT22;51065;48.884;12.598;2022-12-18T10:51:19;-2.70;99.90
64654;DHT22;51065;48.884;12.598;2022-12-18T10:53:52;-2.80;99.90
64654;DHT22;51065;48.884;12.598;2022-12-18T10:56:20;-2.50;99.90
64654;DHT22;51065;48.884;12.598;2022-12-18T10:58:56;-2.50;99.90
64654;DHT22;51065;48.884;12.598;2022-12-18T11:01:22;-2.40;99.90
64654;DHT22;51065;48.884;12.598;2022-12-18T11:06:22;-2.30;99.90
64654;DHT22;51065;48.884;12.598;2022-12-18T11:09:05;-2.30;99.90
64654;DHT22;51065;48.884;12.598;2022-12-18T11:11:32;-2.40;99.90
64654;DHT22;51065;48.884;12.598;2022-12-18T11:14:04;-2.20;99.90
64654;DHT22;51065;48.884;12.598;2022-12-18T11:16:34;-2.10;99.90
64654;DHT22;51065;48.884;12.598;2022-12-18T11:21:56;-2.10;99.90
64654;DHT22;51065;48.884;12.598;2022-12-18T11:24:29;-2.00;99.90
64654;DHT22;51065;48.884;12.598;2022-12-18T11:26:58;-2.00;99.90
64654;DHT22;51065;48.884;12.598;2022-12-18T11:29:39;-1.50;99.90
64654;DHT22;51065;48.884;12.598;2022-12-18T11:35:17;-1.10;99.90
64654;DHT22;51065;48.884;12.598;2022-12-18T11:37:50;-1.30;99.90
64654;DHT22;51065;48.884;12.598;2022-12-18T11:40:22;-0.90;99.90
64654;DHT22;51065;48.884;12.598;2022-12-18T11:45:51;-0.40;99.90
64654;DHT22;51065;48.884;12.598;2022-12-18T11:48:19;-0.10;99.50
64654;DHT22;51065;48.884;12.598;2022-12-18T11:50:57;0.30;96.20
64654;DHT22;51065;48.884;12.598;2022-12-18T11:53:25;1.30;93.20
64654;DHT22;51065;48.884;12.598;2022-12-18T11:56:29;1.70;83.50
64654;DHT22;51065;48.884;12.598;2022-12-18T12:01:50;3.00;73.80
64654;DHT22;51065;48.884;12.598;2022-12-18T12:07:37;4.20;64.60
64654;DHT22;51065;48.884;12.598;2022-12-18T12:10:30;3.60;64.50
64654;DHT22;51065;48.884;12.598;2022-12-18T12:14:01;3.80;63.10
64654;DHT22;51065;48.884;12.598;2022-12-18T12:19:04;3.10;67.40
64654;DHT22;51065;48.884;12.598;2022-12-18T12:21:39;2.70;66.90
64654;DHT22;51065;48.884;12.598;2022-12-18T12:24:12;3.40;66.10
64654;DHT22;51065;48.884;12.598;2022-12-18T12:32:05;3.80;61.30
64654;DHT22;51065;48.884;12.598;2022-12-18T12:37:42;3.90;60.00
64654;DHT22;51065;48.884;12.598;2022-12-18T12:40:14;3.40;61.80
64654;DHT22;51065;48.884;12.598;2022-12-18T12:42:47;2.70;63.80
64654;DHT22;51065;48.884;12.598;2022-12-18T12:45:40;1.70;67.60
64654;DHT22;51065;48.884;12.598;2022-12-18T12:48:15;1.10;71.10
64654;DHT22;51065;48.884;12.598;2022-12-18T12:50:42;0.80;74.40
64654;DHT22;51065;48.884;12.598;2022-12-18T12:53:09;0.00;82.80
64654;DHT22;51065;48.884;12.598;2022-12-18T12:55:40;0.10;84.30
64654;DHT22;51065;48.884;12.598;2022-12-18T13:01:14;-1.40;98.80
64654;DHT22;51065;48.884;12.598;2022-12-18T13:03:52;-2.00;99.90
64654;DHT22;51065;48.884;12.598;2022-12-18T13:08:59;-2.50;99.90
64654;DHT22;51065;48.884;12.598;2022-12-18T13:14:38;-2.70;99.90
64654;DHT22;51065;48.884;12.598;2022-12-18T13:19:43;-3.10;99.90
64654;DHT22;51065;48.884;12.598;2022-12-18T13:22:24;-3.30;99.90
64654;DHT22;51065;48.884;12.598;2022-12-18T13:24:50;-3.30;99.90
64654;DHT22;51065;48.884;12.598;2022-12-18T13:30:44;-3.20;99.90
64654;DHT22;51065;48.884;12.598;2022-12-18T13:35:52;-3.30;99.90
64654;DHT22;51065;48.884;12.598;2022-12-18T13:38:39;-3.30;99.90
64654;DHT22;51065;48.884;12.598;2022-12-18T13:43:41;-3.20;99.90
64654;DHT22;51065;48.884;12.598;2022-12-18T13:46:30;-3.20;99.90
64654;DHT22;51065;48.884;12.598;2022-12-18T13:49:36;-3.20;99.90
64654;DHT22;51065;48.884;12.598;2022-12-18T13:52:03;-3.20;99.90
64654;DHT22;51065;48.884;12.598;2022-12-18T13:54:40;-3.20;99.90
64654;DHT22;51065;48.884;12.598;2022-12-18T13:57:35;-3.20;99.90
64654;DHT22;51065;48.884;12.598;2022-12-18T14:02:46;-3.20;99.90
64654;DHT22;51065;48.884;12.598;2022-12-18T14:07:52;-3.30;99.90
64654;DHT22;51065;48.884;12.598;2022-12-18T14:10:19;-3.40;99.90
64654;DHT22;51065;48.884;12.598;2022-12-18T14:12:47;-3.50;99.90
64654;DHT22;51065;48.884;12.598;2022-12-18T14:20:44;-3.70;99.90
64654;DHT22;51065;48.884;12.598;2022-12-18T14:23:45;-3.70;99.90
64654;DHT22;51065;48.884;12.598;2022-12-18T14:28:45;-3.90;99.90
64654;DHT22;51065;48.884;12.598;2022-12-18T14:31:21;-4.00;99.90
64654;DHT22;51065;48.884;12.598;2022-12-18T14:33:48;-4.00;99.90
64654;DHT22;51065;48.884;12.598;2022-12-18T14:36:23;-4.10;99.90
64654;DHT22;51065;48.884;12.598;2022-12-18T14:38:56;-4.20;99.90
64654;DHT22;51065;48.884;12.598;2022-12-18T14:41:22;-4.30;99.90
64654;DHT22;51065;48.884;12.598;2022-12-18T14:43:50;-4.40;99.90
64654;DHT22;51065;48.884;12.598;2022-12-18T14:49:21;-4.60;99.90
64654;DHT22;51065;48.884;12.598;2022-12-18T14:51:49;-4.70;99.90
64654;DHT22;51065;48.884;12.598;2022-12-18T14:54:17;-4.70;99.90
64654;DHT22;51065;48.884;12.598;2022-12-18T14:56:49;-4.80;99.90
64654;DHT22;51065;48.884;12.598;2022-12-18T14:59:20;-5.00;99.90
64654;DHT22;51065;48.884;12.598;2022-12-18T15:02:20;-5.00;99.90
64654;DHT22;51065;48.884;12.598;2022-12-18T15:04:46;-5.10;99.90
64654;DHT22;51065;48.884;12.598;2022-12-18T15:07:23;-5.30;99.90
64654;DHT22;51065;48.884;12.598;2022-12-18T15:20:40;-5.50;99.90
64654;DHT22;51065;48.884;12.598;2022-12-18T15:23:20;-5.60;99.90
64654;DHT22;51065;48.884;12.598;2022-12-18T15:25:55;-5.60;99.90
64654;DHT22;51065;48.884;12.598;2022-12-18T15:28:45;-5.60;99.90
64654;DHT22;51065;48.884;12.598;2022-12-18T15:33:43;-5.50;99.90
64654;DHT22;51065;48.884;12.598;2022-12-18T15:36:14;-5.60;99.90
64654;DHT22;51065;48.884;12.598;2022-12-18T15:38:40;-5.60;99.90
64654;DHT22;51065;48.884;12.598;2022-12-18T15:41:12;-5.70;99.90
64654;DHT22;51065;48.884;12.598;2022-12-18T15:43:38;-5.70;99.90
64654;DHT22;51065;48.884;12.598;2022-12-18T15:46:10;-5.70;99.90
64654;DHT22;51065;48.884;12.598;2022-12-18T15:48:44;-5.70;99.90
64654;DHT22;51065;48.884;12.598;2022-12-18T15:51:18;-5.80;99.90
64654;DHT22;51065;48.884;12.598;2022-12-18T15:53:46;-5.80;99.90
64654;DHT22;51065;48.884;12.598;2022-12-18T15:56:14;-5.80;99.90
64654;DHT22;51065;48.884;12.598;2022-12-18T15:58:59;-5.80;99.90
64654;DHT22;51065;48.884;12.598;2022-12-18T16:01:27;-5.80;99.90
64654;DHT22;51065;48.884;12.598;2022-12-18T16:03:53;-5.80;99.90
64654;DHT22;51065;48.884;12.598;2022-12-18T16:06:20;-5.80;99.90
64654;DHT22;51065;48.884;12.598;2022-12-18T16:08:46;-5.80;99.90
64654;DHT22;51065;48.884;12.598;2022-12-18T16:11:27;-5.80;99.90
64654;DHT22;51065;48.884;12.598;2022-12-18T16:14:18;-5.80;99.90
64654;DHT22;51065;48.884;12.598;2022-12-18T16:16:50;-5.80;99.90
64654;DHT22;51065;48.884;12.598;2022-12-18T16:19:16;-5.90;99.90
64654;DHT22;51065;48.884;12.598;2022-12-18T16:21:42;-5.90;99.90
64654;DHT22;51065;48.884;12.598;2022-12-18T16:24:19;-6.00;99.90
64654;DHT22;51065;48.884;12.598;2022-12-18T16:26:47;-6.00;99.90
64654;DHT22;51065;48.884;12.598;2022-12-18T16:29:13;-6.00;99.90
64654;DHT22;51065;48.884;12.598;2022-12-18T16:31:39;-6.00;99.90
64654;DHT22;51065;48.884;12.598;2022-12-18T16:36:48;-6.00;99.90
64654;DHT22;51065;48.884;12.598;2022-12-18T16:39:13;-6.00;99.90
64654;DHT22;51065;48.884;12.598;2022-12-18T16:41:39;-6.10;99.90
64654;DHT22;51065;48.884;12.598;2022-12-18T16:44:05;-6.10;99.90
64654;DHT22;51065;48.884;12.598;2022-12-18T16:46:30;-6.10;99.90
64654;DHT22;51065;48.884;12.598;2022-12-18T16:49:00;-6.20;99.90
64654;DHT22;51065;48.884;12.598;2022-12-18T16:51:26;-6.30;99.90
64654;DHT22;51065;48.884;12.598;2022-12-18T16:53:53;-6.40;99.90
64654;DHT22;51065;48.884;12.598;2022-12-18T16:56:23;-6.50;99.90
64654;DHT22;51065;48.884;12.598;2022-12-18T16:58:56;-6.50;99.90
64654;DHT22;51065;48.884;12.598;2022-12-18T17:01:23;-6.60;99.90
64654;DHT22;51065;48.884;12.598;2022-12-18T17:03:57;-6.70;99.90
64654;DHT22;51065;48.884;12.598;2022-12-18T17:06:25;-6.70;99.90
64654;DHT22;51065;48.884;12.598;2022-12-18T17:09:03;-6.70;99.90
64654;DHT22;51065;48.884;12.598;2022-12-18T17:11:31;-6.60;99.90
64654;DHT22;51065;48.884;12.598;2022-12-18T17:13:57;-6.60;99.90
64654;DHT22;51065;48.884;12.598;2022-12-18T17:16:24;-6.60;99.90
64654;DHT22;51065;48.884;12.598;2022-12-18T17:18:51;-6.60;99.90
64654;DHT22;51065;48.884;12.598;2022-12-18T17:21:17;-6.60;99.90
64654;DHT22;51065;48.884;12.598;2022-12-18T17:23:43;-6.60;99.90
64654;DHT22;51065;48.884;12.598;2022-12-18T17:26:10;-6.50;99.90
64654;DHT22;51065;48.884;12.598;2022-12-18T17:28:37;-6.50;99.90
64654;DHT22;51065;48.884;12.598;2022-12-18T17:31:32;-6.50;99.90
64654;DHT22;51065;48.884;12.598;2022-12-18T17:34:00;-6.50;99.90
64654;DHT22;51065;48.884;12.598;2022-12-18T17:36:26;-6.50;99.90
64654;DHT22;51065;48.884;12.598;2022-12-18T17:39:00;-6.40;99.90